Sahiwal Weather



Sahiwal's Current Weather

Temprature 29.28o scattered clouds

scattered clouds

Rain: 0 %

Min Temprature29.28o
Max Temprature29.28o
Humidity26
Wind Speed4.43 m/h
Sun Rise06:11:21
Sun Set17:33:58
Current Time: 18-Oct-2019 16:01:35
Lat/Lon: 30.67, 73.11




Sahiwal's Geo Location



Sahiwal's Weather Forecast

Time Overall Temp Min Temp Max Temp Humidity Wind Speed Rain
18-Oct-2019 (Fri)
17:00:00 scattered clouds 24.200 24.200 29.280 26 4.43 m/h 0 %
20:00:00 light rain 20.250 20.250 24.060 42 5.94 m/h 19 %
23:00:00 clear sky 19.090 19.090 21.628 45 1.91 m/h 0 %
19-Oct-2019 (Sat)
02:00:00 scattered clouds 20.640 20.640 21.908 44 3.27 m/h 0 %
05:00:00 scattered clouds 20.153 20.153 20.153 48 3.57 m/h 0 %
08:00:00 clear sky 24.611 24.611 24.611 41 3.93 m/h 0 %
11:00:00 clear sky 31.940 31.940 31.940 26 2.63 m/h 0 %
14:00:00 clear sky 35.386 35.386 35.386 18 1.39 m/h 0 %
17:00:00 clear sky 32.242 32.242 32.242 18 2.49 m/h 0 %
20:00:00 clear sky 26.538 26.538 26.538 26 2.02 m/h 0 %
23:00:00 clear sky 23.577 23.577 23.577 30 0.83 m/h 0 %
20-Oct-2019 (Sun)
02:00:00 clear sky 22.737 22.737 22.737 31 2.6 m/h 0 %
05:00:00 clear sky 21.454 21.454 21.454 36 1.75 m/h 0 %
08:00:00 few clouds 26.462 26.462 26.462 27 1.83 m/h 0 %
11:00:00 scattered clouds 34.090 34.090 34.090 17 1.18 m/h 0 %
14:00:00 broken clouds 35.302 35.302 35.302 14 2.84 m/h 0 %
17:00:00 scattered clouds 32.058 32.058 32.058 15 1.65 m/h 0 %
20:00:00 clear sky 26.072 26.072 26.072 24 2.37 m/h 0 %
23:00:00 clear sky 23.847 23.847 23.847 28 1.66 m/h 0 %
21-Oct-2019 (Mon)
02:00:00 clear sky 22.750 22.750 22.750 29 2.42 m/h 0 %
05:00:00 clear sky 21.831 21.831 21.831 30 2.26 m/h 0 %
08:00:00 clear sky 25.979 25.979 25.979 23 2.98 m/h 0 %
11:00:00 clear sky 33.837 33.837 33.837 14 2.4 m/h 0 %
14:00:00 clear sky 36.195 36.195 36.195 10 2.17 m/h 0 %
17:00:00 clear sky 32.534 32.534 32.534 12 1.96 m/h 0 %
20:00:00 clear sky 26.124 26.124 26.124 21 1.82 m/h 0 %
23:00:00 clear sky 23.530 23.530 23.530 24 2.34 m/h 0 %
22-Oct-2019 (Tue)
02:00:00 clear sky 22.396 22.396 22.396 27 1.89 m/h 0 %
05:00:00 clear sky 20.999 20.999 20.999 29 2.26 m/h 0 %
08:00:00 clear sky 25.082 25.082 25.082 23 2.21 m/h 0 %
11:00:00 clear sky 33.839 33.839 33.839 12 2.05 m/h 0 %
14:00:00 clear sky 36.579 36.579 36.579 8 2.1 m/h 0 %
17:00:00 clear sky 32.252 32.252 32.252 10 1.57 m/h 0 %
20:00:00 clear sky 25.750 25.750 25.750 17 2.12 m/h 0 %
23:00:00 clear sky 23.419 23.419 23.419 20 1.47 m/h 0 %
23-Oct-2019 (Wed)
02:00:00 clear sky 22.576 22.576 22.576 21 3.02 m/h 0 %
05:00:00 few clouds 20.587 20.587 20.587 24 2.97 m/h 0 %
08:00:00 clear sky 24.849 24.849 24.849 17 1.64 m/h 0 %
11:00:00 clear sky 33.895 33.895 33.895 11 2.48 m/h 0 %
14:00:00 clear sky 36.559 36.559 36.559 8 3.2 m/h 0 %

Famous Cities (61)